Time;durP1;ratioP1;P1;durP2;ratioP2;P2;SDS_P1;SDS_P2;PMS_P1;PMS_P2;Temp;Humidity;BMP_temperature;BMP_pressure;BME280_temperature;BME280_humidity;BME280_pressure;Samples;Min_cycle;Max_cycle;Signal;HPM_P1;HPM_P2
2023/09/30 00:01:14;;;;;;;10.88;3.10;;;;;;;;;;5017385;28;20045;-71
2023/09/30 00:03:41;;;;;;;13.25;2.88;;;;;;;;;;5065674;28;20057;-70
2023/09/30 00:06:08;;;;;;;8.23;2.60;;;;;;;;;;5045068;28;20055;-70
2023/09/30 00:08:34;;;;;;;13.98;3.00;;;;;;;;;;5054571;28;20087;-70
2023/09/30 00:11:07;;;;;;;19.25;3.35;;;;;;;;;;5060378;28;20109;-71
2023/09/30 00:13:34;;;;;;;7.57;2.83;;;;;;;;;;5042663;28;20413;-71
2023/09/30 00:16:01;;;;;;;11.15;3.60;;;;;;;;;;5041202;28;20052;-69
2023/09/30 00:18:28;;;;;;;8.35;3.20;;;;;;;;;;5040658;28;20055;-70
2023/09/30 00:20:55;;;;;;;12.90;2.88;;;;;;;;;;5041522;28;20256;-69
2023/09/30 00:23:22;;;;;;;15.55;3.17;;;;;;;;;;5067463;28;20072;-71
2023/09/30 00:25:50;;;;;;;13.20;2.97;;;;;;;;;;5040910;28;20048;-71
2023/09/30 00:28:18;;;;;;;10.15;2.97;;;;;;;;;;5035417;28;20057;-70
2023/09/30 00:30:47;;;;;;;7.57;2.83;;;;;;;;;;5039631;28;20060;-70
2023/09/30 00:33:14;;;;;;;8.30;2.65;;;;;;;;;;5018569;28;20064;-71
2023/09/30 00:35:41;;;;;;;13.50;2.60;;;;;;;;;;5019909;28;20087;-70
2023/09/30 00:38:08;;;;;;;9.82;2.97;;;;;;;;;;5015016;28;20088;-70
2023/09/30 00:40:35;;;;;;;8.10;2.70;;;;;;;;;;5021732;28;20052;-70
2023/09/30 00:43:03;;;;;;;11.13;2.83;;;;;;;;;;5034288;28;20080;-70
2023/09/30 00:45:31;;;;;;;10.38;3.05;;;;;;;;;;5038072;28;20048;-70
2023/09/30 00:47:58;;;;;;;16.50;2.97;;;;;;;;;;5038089;28;20052;-70
2023/09/30 00:50:26;;;;;;;11.25;2.88;;;;;;;;;;5043678;28;20112;-70
2023/09/30 00:52:53;;;;;;;7.85;2.42;;;;;;;;;;5042636;28;20044;-70
2023/09/30 00:55:21;;;;;;;9.23;3.10;;;;;;;;;;5037364;28;20160;-69
2023/09/30 00:57:47;;;;;;;12.13;3.00;;;;;;;;;;5038392;28;20060;-69
2023/09/30 01:00:16;;;;;;;13.70;3.00;;;;;;;;;;5043331;28;20052;-70
2023/09/30 01:02:46;;;;;;;10.27;2.90;;;;;;;;;;5043889;28;20052;-70
2023/09/30 01:05:13;;;;;;;10.68;3.03;;;;;;;;;;5037632;28;20129;-70
2023/09/30 01:07:40;;;;;;;14.77;3.10;;;;;;;;;;5038066;28;20060;-70
2023/09/30 01:10:08;;;;;;;7.85;3.05;;;;;;;;;;5042647;28;20052;-70
2023/09/30 01:12:35;;;;;;;11.27;3.07;;;;;;;;;;5046877;28;20076;-73
2023/09/30 01:15:03;;;;;;;8.60;2.78;;;;;;;;;;5061868;28;20333;-70
2023/09/30 01:17:30;;;;;;;10.07;2.80;;;;;;;;;;5051533;28;20056;-69
2023/09/30 01:20:00;;;;;;;9.20;3.03;;;;;;;;;;5062247;28;20059;-71
2023/09/30 01:22:30;;;;;;;10.55;3.13;;;;;;;;;;5062058;28;20059;-72
2023/09/30 01:24:56;;;;;;;12.95;3.42;;;;;;;;;;5042270;28;20052;-72
2023/09/30 01:27:23;;;;;;;11.25;3.08;;;;;;;;;;5029729;28;20111;-70
2023/09/30 01:29:50;;;;;;;8.65;2.90;;;;;;;;;;5041561;28;20074;-72
2023/09/30 01:32:17;;;;;;;11.73;3.03;;;;;;;;;;5052241;28;20075;-70
2023/09/30 01:34:44;;;;;;;9.38;2.95;;;;;;;;;;5061495;28;20052;-71
2023/09/30 01:37:13;;;;;;;8.23;3.00;;;;;;;;;;5054227;28;20184;-71
2023/09/30 01:39:43;;;;;;;9.98;3.40;;;;;;;;;;5043893;28;20076;-71
2023/09/30 01:42:10;;;;;;;10.45;3.50;;;;;;;;;;5042040;28;20040;-72
2023/09/30 01:44:37;;;;;;;9.02;3.22;;;;;;;;;;5074558;28;20061;-70
2023/09/30 01:47:04;;;;;;;8.73;3.33;;;;;;;;;;5036862;28;20040;-71
2023/09/30 01:49:31;;;;;;;10.65;3.20;;;;;;;;;;5067476;28;20059;-71
2023/09/30 01:51:58;;;;;;;14.35;3.30;;;;;;;;;;5042254;28;20087;-71
2023/09/30 01:54:25;;;;;;;11.95;3.05;;;;;;;;;;5042644;28;20053;-71
2023/09/30 01:56:54;;;;;;;8.38;3.20;;;;;;;;;;5040125;28;20068;-71
2023/09/30 01:59:21;;;;;;;11.23;3.00;;;;;;;;;;5034019;28;20070;-71
2023/09/30 02:01:48;;;;;;;9.45;3.33;;;;;;;;;;5042243;28;20055;-70
2023/09/30 02:04:15;;;;;;;8.25;3.40;;;;;;;;;;5031518;28;20060;-71
2023/09/30 02:06:42;;;;;;;12.27;3.75;;;;;;;;;;5034417;28;20053;-71
2023/09/30 02:09:10;;;;;;;11.60;3.38;;;;;;;;;;5040879;28;20060;-70
2023/09/30 02:11:37;;;;;;;9.40;2.88;;;;;;;;;;5050205;28;20062;-71
2023/09/30 02:14:08;;;;;;;14.85;3.65;;;;;;;;;;5026638;28;20095;-70
2023/09/30 02:16:35;;;;;;;9.15;3.72;;;;;;;;;;5034067;28;20052;-71
2023/09/30 02:19:01;;;;;;;9.02;3.45;;;;;;;;;;5041777;28;20139;-71
2023/09/30 02:21:28;;;;;;;10.27;3.40;;;;;;;;;;5040946;28;20045;-71
2023/09/30 02:23:56;;;;;;;9.50;3.40;;;;;;;;;;5036123;28;20127;-70
2023/09/30 02:26:27;;;;;;;9.90;4.00;;;;;;;;;;5038761;28;20144;-71
2023/09/30 02:28:54;;;;;;;9.95;3.45;;;;;;;;;;5040574;28;20048;-71
2023/09/30 02:31:23;;;;;;;10.80;3.85;;;;;;;;;;5043251;28;20060;-69
2023/09/30 02:33:50;;;;;;;10.75;3.83;;;;;;;;;;5055675;28;20056;-70
2023/09/30 02:36:18;;;;;;;10.77;3.47;;;;;;;;;;5062257;28;20150;-72
2023/09/30 02:38:46;;;;;;;8.90;3.45;;;;;;;;;;5044423;28;20059;-73
2023/09/30 02:41:13;;;;;;;11.98;3.53;;;;;;;;;;5061616;28;20044;-72
2023/09/30 02:43:40;;;;;;;12.13;3.90;;;;;;;;;;5057513;28;20056;-72
2023/09/30 02:46:10;;;;;;;13.80;3.85;;;;;;;;;;5060484;28;20138;-71
2023/09/30 02:48:38;;;;;;;12.57;4.40;;;;;;;;;;5040599;28;20118;-71
2023/09/30 02:51:05;;;;;;;11.95;3.80;;;;;;;;;;5021686;28;20052;-70
2023/09/30 02:53:31;;;;;;;13.18;4.57;;;;;;;;;;5020542;28;20069;-70
2023/09/30 02:55:59;;;;;;;11.20;4.28;;;;;;;;;;5015767;28;20157;-70
2023/09/30 02:58:27;;;;;;;12.07;4.20;;;;;;;;;;5014971;28;20079;-71
2023/09/30 03:00:54;;;;;;;10.75;3.83;;;;;;;;;;5021034;28;20148;-72
2023/09/30 03:03:21;;;;;;;13.40;4.32;;;;;;;;;;5019808;28;20056;-70
2023/09/30 03:05:50;;;;;;;13.30;4.82;;;;;;;;;;5015135;28;20068;-73
2023/09/30 03:08:16;;;;;;;;;;;;;;;;;;5022266;28;20055;-70
2023/09/30 03:10:43;;;;;;;11.95;3.88;;;;;;;;;;5045829;28;19956;-71
2023/09/30 03:13:10;;;;;;;12.90;4.75;;;;;;;;;;5035115;28;20057;-71
2023/09/30 03:15:38;;;;;;;11.38;4.53;;;;;;;;;;5035040;28;20052;-70
2023/09/30 03:18:06;;;;;;;12.63;4.13;;;;;;;;;;5040327;28;20109;-71
2023/09/30 03:20:32;;;;;;;11.02;4.13;;;;;;;;;;5048796;28;20071;-71
2023/09/30 03:23:01;;;;;;;10.35;4.18;;;;;;;;;;5020323;28;20126;-71
2023/09/30 03:25:30;;;;;;;12.95;4.95;;;;;;;;;;5014015;28;20045;-70
2023/09/30 03:27:57;;;;;;;9.63;4.47;;;;;;;;;;5020417;28;20053;-71
2023/09/30 03:30:24;;;;;;;14.32;4.70;;;;;;;;;;5017997;28;20053;-70
2023/09/30 03:32:51;;;;;;;14.40;4.78;;;;;;;;;;5015122;28;20052;-71
2023/09/30 03:35:18;;;;;;;10.63;4.30;;;;;;;;;;5015252;28;20049;-70
2023/09/30 03:37:46;;;;;;;13.57;4.57;;;;;;;;;;5020554;28;20049;-72
2023/09/30 03:40:18;;;;;;;9.93;4.60;;;;;;;;;;5019204;28;20099;-70
2023/09/30 03:42:49;;;;;;;9.05;4.47;;;;;;;;;;5014942;28;20048;-70
2023/09/30 03:45:17;;;;;;;13.23;4.78;;;;;;;;;;5014793;28;20084;-71
2023/09/30 03:47:45;;;;;;;16.60;4.63;;;;;;;;;;5024125;28;20180;-71
2023/09/30 03:50:14;;;;;;;13.40;4.80;;;;;;;;;;5039911;28;20144;-70
2023/09/30 03:52:44;;;;;;;13.30;4.47;;;;;;;;;;5036031;28;20064;-70
2023/09/30 03:55:11;;;;;;;13.07;5.63;;;;;;;;;;5034617;28;20056;-71
2023/09/30 03:57:40;;;;;;;12.73;4.60;;;;;;;;;;5040627;28;20052;-70
2023/09/30 04:00:15;;;;;;;15.20;4.78;;;;;;;;;;5072218;28;20063;-70
2023/09/30 04:02:43;;;;;;;11.23;5.05;;;;;;;;;;5034631;28;20045;-70
2023/09/30 04:05:14;;;;;;;12.50;4.97;;;;;;;;;;5050390;28;20124;-71
2023/09/30 04:07:42;;;;;;;18.42;5.50;;;;;;;;;;5050096;28;20053;-71
2023/09/30 04:10:10;;;;;;;13.95;4.63;;;;;;;;;;5058866;28;20048;-70
2023/09/30 04:12:37;;;;;;;11.35;4.80;;;;;;;;;;5047315;28;20045;-70
2023/09/30 04:15:06;;;;;;;13.00;5.65;;;;;;;;;;5052259;28;20055;-70
2023/09/30 04:17:33;;;;;;;12.32;4.70;;;;;;;;;;5059677;28;20060;-70
2023/09/30 04:20:00;;;;;;;12.50;4.82;;;;;;;;;;5050357;28;20048;-70
2023/09/30 04:22:29;;;;;;;11.50;4.85;;;;;;;;;;5039208;28;20052;-70
2023/09/30 04:24:56;;;;;;;12.88;5.20;;;;;;;;;;5039470;28;20044;-71
2023/09/30 04:27:23;;;;;;;11.82;4.75;;;;;;;;;;5044497;28;20060;-70
2023/09/30 04:29:50;;;;;;;12.65;5.32;;;;;;;;;;5042968;28;20056;-71
2023/09/30 04:32:19;;;;;;;13.38;5.38;;;;;;;;;;5048372;28;20057;-70
2023/09/30 04:34:46;;;;;;;11.45;4.63;;;;;;;;;;5031810;28;20060;-71
2023/09/30 04:37:13;;;;;;;11.80;5.10;;;;;;;;;;5043247;28;20082;-70
2023/09/30 04:39:40;;;;;;;14.18;4.57;;;;;;;;;;5042954;28;20110;-72
2023/09/30 04:42:10;;;;;;;13.25;5.47;;;;;;;;;;5042034;28;20052;-70
2023/09/30 04:44:38;;;;;;;15.73;5.75;;;;;;;;;;5027625;28;20063;-70
2023/09/30 04:47:05;;;;;;;21.02;5.22;;;;;;;;;;5043464;28;20048;-70
2023/09/30 04:49:34;;;;;;;12.27;5.30;;;;;;;;;;5042254;28;20052;-71
2023/09/30 04:52:00;;;;;;;15.13;5.35;;;;;;;;;;5043715;28;20118;-71
2023/09/30 04:54:29;;;;;;;10.85;4.88;;;;;;;;;;5032936;28;20048;-70
2023/09/30 04:56:56;;;;;;;12.82;5.47;;;;;;;;;;5044006;28;20056;-72
2023/09/30 04:59:26;;;;;;;11.27;5.22;;;;;;;;;;5042503;28;20057;-70
2023/09/30 05:01:53;;;;;;;12.20;5.28;;;;;;;;;;5043033;28;20048;-73
2023/09/30 05:04:20;;;;;;;13.63;5.50;;;;;;;;;;5050074;28;20197;-72
2023/09/30 05:06:49;;;;;;;13.10;5.25;;;;;;;;;;5038246;28;20049;-71
2023/09/30 05:09:16;;;;;;;15.15;5.28;;;;;;;;;;5042692;28;20056;-71
2023/09/30 05:11:44;;;;;;;12.50;4.97;;;;;;;;;;5043884;28;20056;-72
2023/09/30 05:14:10;;;;;;;14.75;5.38;;;;;;;;;;5036515;28;20143;-71
2023/09/30 05:16:38;;;;;;;9.95;5.13;;;;;;;;;;5034986;28;20108;-70
2023/09/30 05:19:05;;;;;;;13.10;5.57;;;;;;;;;;5042094;28;20072;-70
2023/09/30 05:21:32;;;;;;;14.40;5.45;;;;;;;;;;5043010;28;20144;-71
2023/09/30 05:24:00;;;;;;;15.57;5.95;;;;;;;;;;5037253;28;20522;-70
2023/09/30 05:26:27;;;;;;;13.35;5.45;;;;;;;;;;5036106;28;20052;-71
2023/09/30 05:28:54;;;;;;;14.52;5.72;;;;;;;;;;5041774;28;20148;-71
2023/09/30 05:31:21;;;;;;;12.55;5.47;;;;;;;;;;5041613;28;20052;-71
2023/09/30 05:33:48;;;;;;;16.02;6.20;;;;;;;;;;5057283;28;20051;-72
2023/09/30 05:36:14;;;;;;;12.45;5.30;;;;;;;;;;5062871;28;20052;-70
2023/09/30 05:38:41;;;;;;;16.80;5.53;;;;;;;;;;5055807;28;20082;-71
2023/09/30 05:41:11;;;;;;;16.02;6.15;;;;;;;;;;5064589;28;20044;-72
2023/09/30 05:43:38;;;;;;;13.18;5.68;;;;;;;;;;5051673;28;20107;-71
2023/09/30 05:46:07;;;;;;;18.27;5.93;;;;;;;;;;5057977;28;20087;-71
2023/09/30 05:48:34;;;;;;;;;;;;;;;;;;5055434;28;20052;-71
2023/09/30 05:51:01;;;;;;;13.38;5.30;;;;;;;;;;5095972;28;19930;-70
2023/09/30 05:53:29;;;;;;;17.90;5.57;;;;;;;;;;5061526;28;20086;-70
2023/09/30 05:55:56;;;;;;;11.65;5.63;;;;;;;;;;5057621;28;20044;-72
2023/09/30 05:58:25;;;;;;;15.50;5.65;;;;;;;;;;5058402;28;20047;-72
2023/09/30 06:00:53;;;;;;;12.45;5.57;;;;;;;;;;5060270;28;20066;-70
2023/09/30 06:03:21;;;;;;;13.70;5.82;;;;;;;;;;5047984;28;20112;-70
2023/09/30 06:05:48;;;;;;;15.68;6.25;;;;;;;;;;5045026;28;20051;-71
2023/09/30 06:08:15;;;;;;;16.33;6.07;;;;;;;;;;5057468;28;20078;-71
2023/09/30 06:10:43;;;;;;;13.43;5.95;;;;;;;;;;5050179;28;20075;-71
2023/09/30 06:13:11;;;;;;;11.23;5.63;;;;;;;;;;5046814;28;20052;-71
2023/09/30 06:15:41;;;;;;;15.15;6.43;;;;;;;;;;5034209;28;20060;-69
2023/09/30 06:18:09;;;;;;;14.52;6.32;;;;;;;;;;5041952;28;20044;-70
2023/09/30 06:20:36;;;;;;;14.63;6.28;;;;;;;;;;5034979;28;20075;-70
2023/09/30 06:23:03;;;;;;;12.65;5.32;;;;;;;;;;5041549;28;20106;-70
2023/09/30 06:25:32;;;;;;;16.25;6.22;;;;;;;;;;5035858;28;20060;-71
2023/09/30 06:27:59;;;;;;;11.98;5.78;;;;;;;;;;5074451;28;20056;-71
2023/09/30 06:30:30;;;;;;;14.45;6.05;;;;;;;;;;5038053;28;20048;-70
2023/09/30 06:33:00;;;;;;;17.85;6.85;;;;;;;;;;5054875;28;20052;-71
2023/09/30 06:35:26;;;;;;;14.80;5.43;;;;;;;;;;5055183;28;20056;-72
2023/09/30 06:37:54;;;;;;;15.55;6.07;;;;;;;;;;5060434;28;20333;-71
2023/09/30 06:40:24;;;;;;;14.25;6.75;;;;;;;;;;5059381;28;20081;-71
2023/09/30 06:42:51;;;;;;;15.13;6.35;;;;;;;;;;5054787;28;20050;-71
2023/09/30 06:45:18;;;;;;;16.98;5.97;;;;;;;;;;5087696;28;20051;-71
2023/09/30 06:47:45;;;;;;;15.38;6.30;;;;;;;;;;5064028;28;20056;-71
2023/09/30 06:50:16;;;;;;;14.95;6.47;;;;;;;;;;5060629;28;20040;-71
2023/09/30 06:52:45;;;;;;;16.25;6.78;;;;;;;;;;5052354;28;20058;-71
2023/09/30 06:55:14;;;;;;;16.55;6.43;;;;;;;;;;5049387;28;20059;-71
2023/09/30 06:57:42;;;;;;;19.40;5.85;;;;;;;;;;5038773;28;20134;-71
2023/09/30 07:00:11;;;;;;;17.08;8.18;;;;;;;;;;5020061;28;20056;-71
2023/09/30 07:02:40;;;;;;;20.95;8.77;;;;;;;;;;5021208;28;20115;-71
2023/09/30 07:05:10;;;;;;;16.13;7.38;;;;;;;;;;5022912;28;20135;-72
2023/09/30 07:07:39;;;;;;;15.38;6.63;;;;;;;;;;5041501;28;20058;-72
2023/09/30 07:10:07;;;;;;;14.75;6.38;;;;;;;;;;5037436;28;20117;-72
2023/09/30 07:12:35;;;;;;;13.43;6.05;;;;;;;;;;5031309;28;20068;-72
2023/09/30 07:15:03;;;;;;;14.95;6.40;;;;;;;;;;5023774;28;20063;-71
2023/09/30 07:17:30;;;;;;;15.37;6.57;;;;;;;;;;5039267;28;20048;-72
2023/09/30 07:19:57;;;;;;;17.33;7.07;;;;;;;;;;5037191;28;20052;-72
2023/09/30 07:22:24;;;;;;;21.85;7.43;;;;;;;;;;5036777;28;20060;-71
2023/09/30 07:24:53;;;;;;;15.18;7.10;;;;;;;;;;5025990;28;20056;-72
2023/09/30 07:27:19;;;;;;;;;;;;;;;;;;5040487;28;20102;-72
2023/09/30 07:29:48;;;;;;;14.63;6.57;;;;;;;;;;5038068;28;19924;-71
2023/09/30 07:32:14;;;;;;;14.65;6.40;;;;;;;;;;5039476;28;20054;-70
2023/09/30 07:34:41;;;;;;;21.55;7.45;;;;;;;;;;5026265;28;20048;-70
2023/09/30 07:37:09;;;;;;;20.73;8.35;;;;;;;;;;5040936;28;20049;-69
2023/09/30 07:39:36;;;;;;;18.67;6.95;;;;;;;;;;5038973;28;20106;-70
2023/09/30 07:42:05;;;;;;;18.40;7.25;;;;;;;;;;5041489;28;20076;-70
2023/09/30 07:44:32;;;;;;;16.08;7.10;;;;;;;;;;5028482;28;20056;-71
2023/09/30 07:46:58;;;;;;;23.63;7.47;;;;;;;;;;5056198;28;20056;-69
2023/09/30 07:49:25;;;;;;;21.58;7.97;;;;;;;;;;5038400;28;20067;-69
2023/09/30 07:51:52;;;;;;;18.80;7.60;;;;;;;;;;5039320;28;20106;-70
2023/09/30 07:54:19;;;;;;;20.27;9.13;;;;;;;;;;5032471;28;20048;-69
2023/09/30 07:56:46;;;;;;;23.42;8.30;;;;;;;;;;5050988;28;20056;-69
2023/09/30 07:59:15;;;;;;;21.83;8.20;;;;;;;;;;5059701;28;20045;-69
2023/09/30 08:01:42;;;;;;;17.95;8.07;;;;;;;;;;5057971;28;20060;-69
2023/09/30 08:04:09;;;;;;;20.55;8.63;;;;;;;;;;5045933;28;20056;-70
2023/09/30 08:06:37;;;;;;;20.17;9.80;;;;;;;;;;5051632;28;20060;-69
2023/09/30 08:09:09;;;;;;;43.58;19.48;;;;;;;;;;5059391;28;20176;-69
2023/09/30 08:11:37;;;;;;;33.63;12.60;;;;;;;;;;5061186;28;20044;-69
2023/09/30 08:14:06;;;;;;;25.73;8.75;;;;;;;;;;5076026;28;20060;-69
2023/09/30 08:16:35;;;;;;;19.75;8.88;;;;;;;;;;5073759;28;20063;-70
2023/09/30 08:19:02;;;;;;;21.33;8.90;;;;;;;;;;5078812;28;20131;-70
2023/09/30 08:21:29;;;;;;;23.90;9.85;;;;;;;;;;5062126;28;20060;-68
2023/09/30 08:23:55;;;;;;;20.27;9.13;;;;;;;;;;5057839;28;20270;-70
2023/09/30 08:26:23;;;;;;;23.90;9.70;;;;;;;;;;5059690;28;20060;-70
2023/09/30 08:28:50;;;;;;;24.40;9.77;;;;;;;;;;5056174;28;20067;-69
2023/09/30 08:31:17;;;;;;;25.02;10.57;;;;;;;;;;5076964;28;20052;-69
2023/09/30 08:33:45;;;;;;;26.13;11.02;;;;;;;;;;5061204;28;20966;-70
2023/09/30 08:36:14;;;;;;;23.02;11.95;;;;;;;;;;5080317;28;20063;-70
2023/09/30 08:38:42;;;;;;;24.38;9.20;;;;;;;;;;5055779;28;20251;-70
2023/09/30 08:41:10;;;;;;;20.67;9.23;;;;;;;;;;5065339;28;20139;-69
2023/09/30 08:43:39;;;;;;;22.67;9.40;;;;;;;;;;5062105;28;20102;-70
2023/09/30 08:46:07;;;;;;;25.52;9.20;;;;;;;;;;5058928;28;20056;-70
2023/09/30 08:48:34;;;;;;;22.98;9.05;;;;;;;;;;5055388;28;20095;-70
2023/09/30 08:51:03;;;;;;;19.05;7.47;;;;;;;;;;5047389;28;20056;-70
2023/09/30 08:53:30;;;;;;;22.83;9.45;;;;;;;;;;5042444;28;20057;-70
2023/09/30 08:56:00;;;;;;;23.38;10.45;;;;;;;;;;5040287;28;20055;-70
2023/09/30 08:58:33;;;;;;;21.80;9.38;;;;;;;;;;5056062;28;20085;-70
2023/09/30 09:01:01;;;;;;;21.45;8.45;;;;;;;;;;5062316;28;20055;-71
2023/09/30 09:03:31;;;;;;;17.70;7.78;;;;;;;;;;5052278;28;20110;-71
2023/09/30 09:05:59;;;;;;;25.80;7.97;;;;;;;;;;5058385;28;20052;-68
2023/09/30 09:08:32;;;;;;;20.17;7.57;;;;;;;;;;5060137;28;20052;-71
2023/09/30 09:11:00;;;;;;;20.25;8.73;;;;;;;;;;5064018;28;20059;-69
2023/09/30 09:13:28;;;;;;;19.90;8.82;;;;;;;;;;5067847;28;20083;-68
2023/09/30 09:16:08;;;;;;;24.35;8.80;;;;;;;;;;5073695;28;20052;-69
2023/09/30 09:18:36;;;;;;;22.27;9.23;;;;;;;;;;5078566;28;20048;-71
2023/09/30 09:21:11;;;;;;;23.05;8.25;;;;;;;;;;5068079;28;20056;-71
2023/09/30 09:23:43;;;;;;;20.75;8.63;;;;;;;;;;5093633;28;20120;-71
2023/09/30 09:26:12;;;;;;;23.08;8.73;;;;;;;;;;5056165;28;20071;-70
2023/09/30 09:28:39;;;;;;;20.98;8.65;;;;;;;;;;5059395;28;20051;-70
2023/09/30 09:31:25;;;;;;;21.88;8.10;;;;;;;;;;5060955;28;20071;-70
2023/09/30 09:33:54;;;;;;;28.35;9.45;;;;;;;;;;5036967;28;20061;-70
2023/09/30 09:36:21;;;;;;;19.60;8.38;;;;;;;;;;5040517;28;20076;-68
2023/09/30 09:38:53;;;;;;;20.13;8.20;;;;;;;;;;5032853;28;20083;-68
2023/09/30 09:41:20;;;;;;;27.48;10.38;;;;;;;;;;5072900;28;20429;-69
2023/09/30 09:43:50;;;;;;;30.35;10.63;;;;;;;;;;5035597;28;20067;-72
2023/09/30 09:46:20;;;;;;;20.55;8.57;;;;;;;;;;5038479;28;20061;-71
2023/09/30 09:48:48;;;;;;;28.23;9.77;;;;;;;;;;5034548;28;20067;-70
2023/09/30 09:51:15;;;;;;;24.85;9.32;;;;;;;;;;5040637;28;20140;-70
2023/09/30 09:53:43;;;;;;;22.85;9.50;;;;;;;;;;5050276;28;20083;-71
2023/09/30 09:56:14;;;;;;;25.67;9.25;;;;;;;;;;5055981;28;20051;-70
2023/09/30 09:58:43;;;;;;;26.30;10.15;;;;;;;;;;5081555;28;20071;-70
2023/09/30 10:01:11;;;;;;;31.20;10.20;;;;;;;;;;5090472;28;20056;-71
2023/09/30 10:03:39;;;;;;;25.10;10.50;;;;;;;;;;5055150;28;20084;-71
2023/09/30 10:06:08;;;;;;;26.33;10.25;;;;;;;;;;5033080;28;20057;-71
2023/09/30 10:08:40;;;;;;;28.88;10.90;;;;;;;;;;5032403;28;20052;-70
2023/09/30 10:11:07;;;;;;;26.58;9.82;;;;;;;;;;5072306;28;20057;-71
2023/09/30 10:13:56;;;;;;;27.58;10.13;;;;;;;;;;5071730;28;20056;-71
2023/09/30 10:16:48;;;;;;;20.38;9.18;;;;;;;;;;5053354;28;20128;-71
2023/09/30 10:19:17;;;;;;;25.95;8.82;;;;;;;;;;5062940;28;20078;-70
2023/09/30 10:22:24;;;;;;;19.65;8.38;;;;;;;;;;5059002;28;20052;-70
2023/09/30 10:24:53;;;;;;;21.13;7.80;;;;;;;;;;5040975;28;20154;-71
2023/09/30 10:27:34;;;;;;;23.90;7.90;;;;;;;;;;5077864;28;20120;-71
2023/09/30 10:30:13;;;;;;;18.15;7.47;;;;;;;;;;5077780;28;20074;-71
2023/09/30 10:33:11;;;;;;;25.85;7.15;;;;;;;;;;5062331;28;20326;-71
2023/09/30 10:35:47;;;;;;;19.30;7.30;;;;;;;;;;5090369;28;20060;-70
2023/09/30 10:38:40;;;;;;;19.67;7.30;;;;;;;;;;5061117;28;20166;-72
2023/09/30 10:41:08;;;;;;;24.63;7.38;;;;;;;;;;5061830;28;20139;-70
2023/09/30 10:43:37;;;;;;;14.38;6.63;;;;;;;;;;5058031;28;20055;-69
2023/09/30 10:46:07;;;;;;;31.35;11.27;;;;;;;;;;5087243;28;20056;-70
2023/09/30 10:48:37;;;;;;;40.47;16.17;;;;;;;;;;5050566;28;20052;-69
2023/09/30 10:51:20;;;;;;;23.63;8.70;;;;;;;;;;5057820;28;20141;-69
2023/09/30 10:53:52;;;;;;;16.50;6.47;;;;;;;;;;5056855;28;20044;-70
2023/09/30 10:56:21;;;;;;;18.25;6.38;;;;;;;;;;5054956;28;20060;-70
2023/09/30 10:58:50;;;;;;;17.42;6.85;;;;;;;;;;5053288;28;20157;-70
2023/09/30 11:01:20;;;;;;;;;;;;;;;;;;5059432;28;20114;-70
2023/09/30 11:03:49;;;;;;;16.02;4.97;;;;;;;;;;5079331;28;19937;-71
2023/09/30 11:06:20;;;;;;;22.15;6.65;;;;;;;;;;5059142;28;20055;-70
2023/09/30 11:08:53;;;;;;;21.75;5.20;;;;;;;;;;5050908;28;20080;-69
2023/09/30 11:11:20;;;;;;;13.98;3.85;;;;;;;;;;5063122;28;20048;-70
2023/09/30 11:13:47;;;;;;;13.85;4.07;;;;;;;;;;5056604;28;20151;-70
2023/09/30 11:16:15;;;;;;;15.32;3.80;;;;;;;;;;5055334;28;20069;-69
2023/09/30 11:18:43;;;;;;;16.17;3.40;;;;;;;;;;5049102;28;20102;-70
2023/09/30 11:21:12;;;;;;;;;;;;;;;;;;5058032;28;20059;-71
2023/09/30 11:23:41;;;;;;;15.52;3.97;;;;;;;;;;5055672;28;20018;-70
2023/09/30 11:26:09;;;;;;;12.07;3.35;;;;;;;;;;5053271;28;20059;-70
2023/09/30 11:28:40;;;;;;;8.88;2.30;;;;;;;;;;5048885;28;20060;-70
2023/09/30 11:31:11;;;;;;;13.65;3.10;;;;;;;;;;5057367;28;20134;-70
2023/09/30 11:33:53;;;;;;;10.80;2.42;;;;;;;;;;5060095;28;20131;-70
2023/09/30 11:36:24;;;;;;;10.98;2.75;;;;;;;;;;5054950;28;20071;-69
2023/09/30 11:38:52;;;;;;;12.13;2.83;;;;;;;;;;5066390;28;21896;-70
2023/09/30 11:41:19;;;;;;;18.92;4.78;;;;;;;;;;5057786;28;20060;-71
2023/09/30 11:44:00;;;;;;;19.45;6.50;;;;;;;;;;5090693;28;20052;-69
2023/09/30 11:46:28;;;;;;;13.48;3.97;;;;;;;;;;5050160;28;20052;-70
2023/09/30 11:49:04;;;;;;;13.75;2.90;;;;;;;;;;5051850;28;20052;-70
2023/09/30 11:51:46;;;;;;;8.10;2.33;;;;;;;;;;5091413;28;20060;-70
2023/09/30 11:54:12;;;;;;;11.52;3.00;;;;;;;;;;5077034;28;20060;-70
2023/09/30 11:56:39;;;;;;;11.93;2.55;;;;;;;;;;5080393;28;20041;-70
2023/09/30 11:59:06;;;;;;;12.25;2.70;;;;;;;;;;5054111;28;20060;-69
2023/09/30 12:01:33;;;;;;;13.48;3.05;;;;;;;;;;5040465;28;20047;-70
2023/09/30 12:04:02;;;;;;;10.93;2.40;;;;;;;;;;5055800;28;20052;-71
2023/09/30 12:06:29;;;;;;;;;;;;;;;;;;5066985;28;20135;-70
2023/09/30 12:08:57;;;;;;;13.55;3.00;;;;;;;;;;5111549;28;20148;-69
2023/09/30 12:11:25;;;;;;;14.02;2.90;;;;;;;;;;5078571;28;20105;-69
2023/09/30 12:13:52;;;;;;;;;;;;;;;;;;5081904;28;20132;-70
2023/09/30 12:16:21;;;;;;;13.18;2.90;;;;;;;;;;5106955;28;20023;-70
2023/09/30 12:18:53;;;;;;;9.82;1.95;;;;;;;;;;5073449;28;21332;-70
2023/09/30 12:21:23;;;;;;;15.73;2.33;;;;;;;;;;5063985;28;20044;-71
2023/09/30 12:23:51;;;;;;;8.18;2.17;;;;;;;;;;5074633;28;20056;-71
2023/09/30 12:26:26;;;;;;;8.60;2.25;;;;;;;;;;5050605;28;20049;-71
2023/09/30 12:28:55;;;;;;;6.55;2.20;;;;;;;;;;5061339;28;20052;-71
2023/09/30 12:31:25;;;;;;;9.48;1.90;;;;;;;;;;5061301;28;20053;-70
2023/09/30 12:33:55;;;;;;;12.07;1.92;;;;;;;;;;5055103;28;20045;-71
2023/09/30 12:36:26;;;;;;;11.93;2.20;;;;;;;;;;5024477;28;20044;-71
2023/09/30 12:38:53;;;;;;;;;;;;;;;;;;5035544;28;20129;-72
2023/09/30 12:41:21;;;;;;;15.50;1.88;;;;;;;;;;5058252;28;19931;-71
2023/09/30 12:43:48;;;;;;;6.30;1.75;;;;;;;;;;5060147;28;20055;-71
2023/09/30 12:46:15;;;;;;;8.52;2.17;;;;;;;;;;5056763;28;20048;-72
2023/09/30 12:48:42;;;;;;;22.50;6.63;;;;;;;;;;5051692;28;20222;-71
2023/09/30 12:51:09;;;;;;;14.27;3.83;;;;;;;;;;5084897;28;20062;-71
2023/09/30 12:53:45;;;;;;;8.53;1.90;;;;;;;;;;5079035;28;20055;-72
2023/09/30 12:56:14;;;;;;;10.38;2.05;;;;;;;;;;5079494;28;20097;-74
2023/09/30 12:58:51;;;;;;;9.90;2.03;;;;;;;;;;5071909;28;20058;-71
2023/09/30 13:01:19;;;;;;;10.05;1.90;;;;;;;;;;5082708;28;20051;-73
2023/09/30 13:03:51;;;;;;;9.95;2.10;;;;;;;;;;5055597;28;20058;-74
2023/09/30 13:06:22;;;;;;;9.23;2.17;;;;;;;;;;4940131;28;20079;-73
2023/09/30 13:08:52;;;;;;;11.45;2.33;;;;;;;;;;5081005;28;20068;-73
2023/09/30 13:11:23;;;;;;;9.32;2.50;;;;;;;;;;5080648;28;20064;-73
2023/09/30 13:13:50;;;;;;;11.90;2.33;;;;;;;;;;5063689;28;20052;-73
2023/09/30 13:16:18;;;;;;;10.73;2.38;;;;;;;;;;5049720;28;20120;-72
2023/09/30 13:18:45;;;;;;;11.45;2.90;;;;;;;;;;5051491;28;20071;-72
2023/09/30 13:21:15;;;;;;;9.13;2.10;;;;;;;;;;5078764;28;20071;-73
2023/09/30 13:23:42;;;;;;;7.65;1.95;;;;;;;;;;5078909;28;20064;-73
2023/09/30 13:26:11;;;;;;;9.05;2.35;;;;;;;;;;5057312;28;20105;-74
2023/09/30 13:28:39;;;;;;;13.60;2.30;;;;;;;;;;5073956;28;20048;-73
2023/09/30 13:31:08;;;;;;;16.90;2.60;;;;;;;;;;5072278;28;20114;-73
2023/09/30 13:33:35;;;;;;;11.32;2.05;;;;;;;;;;5061765;28;20052;-73
2023/09/30 13:36:03;;;;;;;11.90;2.22;;;;;;;;;;5033187;28;20049;-74
2023/09/30 13:38:30;;;;;;;8.70;2.27;;;;;;;;;;5040801;28;20052;-72
2023/09/30 13:40:57;;;;;;;12.48;2.58;;;;;;;;;;5042343;28;20076;-70
2023/09/30 13:43:29;;;;;;;11.98;2.53;;;;;;;;;;5055663;28;20251;-71
2023/09/30 13:45:58;;;;;;;10.13;2.80;;;;;;;;;;5020402;27;20064;-74
2023/09/30 13:48:33;;;;;;;9.52;2.10;;;;;;;;;;5020746;28;20060;-76
2023/09/30 13:51:46;;;;;;;9.98;2.50;;;;;;;;;;5042174;28;20076;-77
2023/09/30 13:57:41;;;;;;;11.93;2.58;;;;;;;;;;5009844;28;20049;-76
2023/09/30 14:00:14;;;;;;;9.70;2.75;;;;;;;;;;5025831;28;20045;-76
2023/09/30 14:02:44;;;;;;;14.32;2.72;;;;;;;;;;5033005;28;20055;-75
2023/09/30 14:05:16;;;;;;;11.35;2.45;;;;;;;;;;4987037;28;20063;-76
2023/09/30 14:07:44;;;;;;;10.73;2.45;;;;;;;;;;5047705;28;20052;-76
2023/09/30 14:10:12;;;;;;;8.40;2.35;;;;;;;;;;5040788;28;20076;-76
2023/09/30 14:12:40;;;;;;;7.22;2.28;;;;;;;;;;5035782;28;20048;-74
2023/09/30 14:15:15;;;;;;;20.30;6.95;;;;;;;;;;4985255;28;20049;-75
2023/09/30 14:17:42;;;;;;;9.15;2.53;;;;;;;;;;5051250;28;20048;-74
2023/09/30 14:20:13;;;;;;;12.63;3.03;;;;;;;;;;5046459;28;20052;-76
2023/09/30 14:22:40;;;;;;;22.15;6.90;;;;;;;;;;5030956;28;20045;-74
2023/09/30 14:27:35;;;;;;;15.10;3.22;;;;;;;;;;4952261;28;20041;-73
2023/09/30 14:30:04;;;;;;;12.90;3.05;;;;;;;;;;5025433;28;20072;-74
2023/09/30 14:32:41;;;;;;;12.50;4.07;;;;;;;;;;5043395;28;20071;-73
2023/09/30 14:35:11;;;;;;;;;;;;;;;;;;5038936;28;20080;-75
2023/09/30 14:37:38;;;;;;;26.58;9.68;;;;;;;;;;5039779;28;19932;-74
2023/09/30 14:40:10;;;;;;;15.23;5.30;;;;;;;;;;5060706;28;20074;-76
2023/09/30 14:42:37;;;;;;;9.32;3.22;;;;;;;;;;5041603;28;20074;-73
2023/09/30 14:45:10;;;;;;;10.40;2.70;;;;;;;;;;5025554;28;20119;-73
2023/09/30 14:47:37;;;;;;;13.23;3.70;;;;;;;;;;5045389;28;20060;-74
2023/09/30 14:50:11;;;;;;;11.40;3.65;;;;;;;;;;5049116;28;20049;-74